createdAt,value
2017-10-13T00:01:36.959Z,99.90
2017-10-13T00:04:05.080Z,99.90
2017-10-13T00:06:33.229Z,99.90
2017-10-13T00:09:01.378Z,99.90
2017-10-13T00:11:30.280Z,99.90
2017-10-13T00:13:59.201Z,99.90
2017-10-13T00:16:27.340Z,99.90
2017-10-13T00:18:56.226Z,99.90
2017-10-13T00:21:25.132Z,99.90
2017-10-13T00:23:53.411Z,99.90
2017-10-13T00:26:22.080Z,99.90
2017-10-13T00:28:50.979Z,99.90
2017-10-13T00:31:19.121Z,99.90
2017-10-13T00:33:47.259Z,99.90
2017-10-13T00:36:15.392Z,99.90
2017-10-13T00:38:44.335Z,99.90
2017-10-13T00:41:13.243Z,99.90
2017-10-13T00:43:41.366Z,99.90
2017-10-13T00:46:09.578Z,99.90
2017-10-13T00:48:37.716Z,99.90
2017-10-13T00:51:06.046Z,99.90
2017-10-13T00:53:34.148Z,99.90
2017-10-13T00:56:02.296Z,99.90
2017-10-13T00:58:30.416Z,99.90
2017-10-13T01:00:58.550Z,99.90
2017-10-13T01:03:27.455Z,99.90
2017-10-13T01:05:55.579Z,99.90
2017-10-13T01:08:23.712Z,99.90
2017-10-13T01:10:51.861Z,99.90
2017-10-13T01:13:20.000Z,99.90
2017-10-13T01:15:48.109Z,99.90
2017-10-13T01:18:16.310Z,99.90
2017-10-13T01:20:44.420Z,99.90
2017-10-13T01:23:12.540Z,99.90
2017-10-13T01:25:40.679Z,99.90
2017-10-13T01:28:09.627Z,99.90
2017-10-13T01:30:37.774Z,99.90
2017-10-13T01:33:06.229Z,99.90
2017-10-13T01:35:34.342Z,99.90
2017-10-13T01:38:02.500Z,99.90
2017-10-13T01:40:30.677Z,99.90
2017-10-13T01:42:58.804Z,99.90
2017-10-13T01:45:26.989Z,99.90
2017-10-13T01:47:55.911Z,99.90
2017-10-13T01:50:24.042Z,99.90
2017-10-13T01:52:52.172Z,99.90
2017-10-13T01:55:20.323Z,99.90
2017-10-13T01:57:49.218Z,99.90
2017-10-13T02:00:17.352Z,99.90
2017-10-13T02:02:45.770Z,99.90
2017-10-13T02:05:13.907Z,99.90
2017-10-13T02:07:42.043Z,99.90
2017-10-13T02:10:10.211Z,99.90
2017-10-13T02:12:38.357Z,99.90
2017-10-13T02:15:06.511Z,99.90
2017-10-13T02:17:34.657Z,99.90
2017-10-13T02:20:03.960Z,99.90
2017-10-13T02:22:32.395Z,99.90
2017-10-13T02:25:00.529Z,99.90
2017-10-13T02:27:28.705Z,99.90
2017-10-13T02:29:56.899Z,99.90
2017-10-13T02:32:25.056Z,99.90
2017-10-13T02:34:53.206Z,99.90
2017-10-13T02:37:22.114Z,99.90
2017-10-13T02:39:50.992Z,99.90
2017-10-13T02:42:19.956Z,99.90
2017-10-13T02:44:48.087Z,99.90
2017-10-13T02:47:16.220Z,99.90
2017-10-13T02:49:45.123Z,99.90
2017-10-13T02:52:14.023Z,99.90
2017-10-13T02:54:42.932Z,99.90
2017-10-13T02:57:11.078Z,99.90
2017-10-13T02:59:39.223Z,99.90
2017-10-13T03:02:07.355Z,99.90
2017-10-13T03:04:35.533Z,99.90
2017-10-13T03:07:03.692Z,99.90
2017-10-13T03:09:32.575Z,99.90
2017-10-13T03:12:00.708Z,99.90
2017-10-13T03:14:28.842Z,99.90
2017-10-13T03:16:57.069Z,99.90
2017-10-13T03:19:25.960Z,99.90
2017-10-13T03:21:54.939Z,99.90
2017-10-13T03:24:23.087Z,99.90
2017-10-13T03:26:51.987Z,99.90
2017-10-13T03:29:20.167Z,99.90
2017-10-13T03:31:48.293Z,99.90
2017-10-13T03:34:16.427Z,99.90
2017-10-13T03:36:45.461Z,99.90
2017-10-13T03:39:13.598Z,99.90
2017-10-13T03:41:42.499Z,99.90
2017-10-13T03:44:10.666Z,99.90
2017-10-13T03:46:39.575Z,99.90
2017-10-13T03:49:07.826Z,99.90
2017-10-13T03:51:35.971Z,99.90
2017-10-13T03:54:04.102Z,99.90
2017-10-13T03:56:32.228Z,99.90
2017-10-13T03:59:00.352Z,99.90
2017-10-13T04:01:28.497Z,99.90
2017-10-13T04:03:56.641Z,99.90
2017-10-13T04:06:25.718Z,99.90
2017-10-13T04:08:53.841Z,99.90
2017-10-13T04:11:22.236Z,99.90
2017-10-13T04:13:50.396Z,99.90
2017-10-13T04:16:18.551Z,99.90
2017-10-13T04:18:47.444Z,99.90
2017-10-13T04:21:16.359Z,99.90
2017-10-13T04:23:44.492Z,99.90
2017-10-13T04:26:13.386Z,99.90
2017-10-13T04:28:42.596Z,99.90
2017-10-13T04:31:10.728Z,99.90
2017-10-13T04:33:38.872Z,99.90
2017-10-13T04:36:07.008Z,99.90
2017-10-13T04:38:35.892Z,99.90
2017-10-13T04:41:04.796Z,99.90
2017-10-13T04:43:32.929Z,99.90
2017-10-13T04:46:01.549Z,99.90
2017-10-13T04:48:29.672Z,99.90
2017-10-13T04:50:57.821Z,99.90
2017-10-13T04:53:25.960Z,99.90
2017-10-13T04:55:54.114Z,99.90
2017-10-13T04:58:22.252Z,99.90
2017-10-13T05:00:50.378Z,99.90
2017-10-13T05:03:19.292Z,99.90
2017-10-13T05:05:47.460Z,99.90
2017-10-13T05:08:15.578Z,99.90
2017-10-13T05:10:43.727Z,99.90
2017-10-13T05:13:11.859Z,99.90
2017-10-13T05:15:40.769Z,99.90
2017-10-13T05:18:08.890Z,99.90
2017-10-13T05:20:37.302Z,99.90
2017-10-13T05:23:06.187Z,99.90
2017-10-13T05:25:35.060Z,99.90
2017-10-13T05:28:03.590Z,99.90
2017-10-13T05:30:31.712Z,99.90
2017-10-13T05:32:59.862Z,99.90
2017-10-13T05:35:28.014Z,99.90
2017-10-13T05:37:56.910Z,99.90
2017-10-13T05:40:25.035Z,99.90
2017-10-13T05:42:54.017Z,99.90
2017-10-13T05:45:22.897Z,99.90
2017-10-13T05:47:51.019Z,99.90
2017-10-13T05:50:19.954Z,99.90
2017-10-13T05:52:48.851Z,99.90
2017-10-13T05:55:17.739Z,99.90
2017-10-13T05:57:46.629Z,99.90
2017-10-13T06:00:15.519Z,99.90
2017-10-13T06:02:44.193Z,99.90
2017-10-13T06:05:12.343Z,99.90
2017-10-13T06:07:40.483Z,99.90
2017-10-13T06:10:08.603Z,99.90
2017-10-13T06:12:38.241Z,99.90
2017-10-13T06:15:07.222Z,99.90
2017-10-13T06:17:35.381Z,99.90
2017-10-13T06:20:03.496Z,99.90
2017-10-13T06:22:31.652Z,99.90
2017-10-13T06:24:59.780Z,99.90
2017-10-13T06:27:28.669Z,99.90
2017-10-13T06:29:56.811Z,99.90
2017-10-13T06:32:24.968Z,99.90
2017-10-13T06:34:53.124Z,99.90
2017-10-13T06:37:21.248Z,99.90
2017-10-13T06:39:49.393Z,99.90
2017-10-13T06:42:17.513Z,99.90
2017-10-13T06:44:46.450Z,99.90
2017-10-13T06:47:14.554Z,99.90
2017-10-13T06:49:42.719Z,99.90
2017-10-13T06:52:10.879Z,99.90
2017-10-13T06:54:38.976Z,99.90
2017-10-13T06:57:07.936Z,99.90
2017-10-13T06:59:36.061Z,99.90
2017-10-13T07:02:04.975Z,99.90
2017-10-13T07:04:33.109Z,99.90
2017-10-13T07:07:01.248Z,99.90
2017-10-13T07:09:29.382Z,99.90
2017-10-13T07:11:57.530Z,99.90
2017-10-13T07:14:26.432Z,99.90
2017-10-13T07:16:54.561Z,99.90
2017-10-13T07:19:22.693Z,99.90
2017-10-13T07:21:50.880Z,99.90
2017-10-13T07:24:19.050Z,99.90
2017-10-13T07:26:47.192Z,99.90
2017-10-13T07:29:15.336Z,99.90
2017-10-13T07:31:43.476Z,99.90
2017-10-13T07:34:11.638Z,99.90
2017-10-13T07:36:40.550Z,99.90
2017-10-13T07:39:08.670Z,99.90
2017-10-13T07:41:36.841Z,99.90
2017-10-13T07:44:04.965Z,99.90
2017-10-13T07:46:33.115Z,99.90
2017-10-13T07:49:02.042Z,99.90
2017-10-13T07:51:30.185Z,99.90
2017-10-13T07:53:59.060Z,99.90
2017-10-13T07:56:28.923Z,99.90
2017-10-13T07:58:57.032Z,99.90
2017-10-13T08:01:25.967Z,99.90
2017-10-13T08:03:54.093Z,99.90
2017-10-13T08:06:23.045Z,99.90
2017-10-13T08:08:51.186Z,99.90
2017-10-13T08:11:19.331Z,99.90
2017-10-13T08:13:47.474Z,99.90
2017-10-13T08:16:15.636Z,99.90
2017-10-13T08:18:43.781Z,99.90
2017-10-13T08:21:11.943Z,99.90
2017-10-13T08:23:40.113Z,99.90
2017-10-13T08:26:09.013Z,99.90
2017-10-13T08:28:37.188Z,99.90
2017-10-13T08:31:05.351Z,99.90
2017-10-13T08:33:33.508Z,99.90
2017-10-13T08:36:01.644Z,99.90
2017-10-13T08:38:29.768Z,99.90
2017-10-13T08:40:57.956Z,99.90
2017-10-13T08:43:26.089Z,99.90
2017-10-13T08:45:54.257Z,99.90
2017-10-13T08:48:22.379Z,99.90
2017-10-13T08:50:50.800Z,99.90
2017-10-13T08:53:18.925Z,99.90
2017-10-13T08:55:47.060Z,99.90
2017-10-13T08:58:15.198Z,99.90
2017-10-13T09:00:44.089Z,99.20
2017-10-13T09:03:12.224Z,99.00
2017-10-13T09:05:40.356Z,99.30
2017-10-13T09:08:08.862Z,99.30
2017-10-13T09:10:37.058Z,99.20
2017-10-13T09:13:05.414Z,98.40
2017-10-13T09:15:34.335Z,97.70
2017-10-13T09:18:02.480Z,97.70
2017-10-13T09:20:31.409Z,97.30
2017-10-13T09:23:05.264Z,97.20
2017-10-13T09:25:34.192Z,96.50
2017-10-13T09:28:02.337Z,96.50
2017-10-13T09:30:31.251Z,95.20
2017-10-13T09:32:59.403Z,95.20
2017-10-13T09:35:28.315Z,94.80
2017-10-13T09:37:56.458Z,94.80
2017-10-13T09:40:24.604Z,94.20
2017-10-13T09:42:52.730Z,94.20
2017-10-13T09:45:21.054Z,94.40
2017-10-13T09:47:49.176Z,93.70
2017-10-13T09:50:17.331Z,93.10
2017-10-13T09:52:46.243Z,92.50
2017-10-13T09:55:14.378Z,92.50
2017-10-13T09:57:43.131Z,93.00
2017-10-13T10:00:11.330Z,92.90
2017-10-13T10:02:39.472Z,93.10
2017-10-13T10:05:07.642Z,92.60
2017-10-13T10:07:35.773Z,92.40
2017-10-13T10:10:03.928Z,91.70
2017-10-13T10:12:32.064Z,91.60
2017-10-13T10:15:00.499Z,90.90
2017-10-13T10:17:29.410Z,90.00
2017-10-13T10:19:57.546Z,90.00
2017-10-13T10:22:25.676Z,86.30
2017-10-13T10:24:53.826Z,85.90
2017-10-13T10:27:22.010Z,86.90
2017-10-13T10:29:50.171Z,86.90
2017-10-13T10:32:18.303Z,86.30
2017-10-13T10:34:47.209Z,86.50
2017-10-13T10:37:16.417Z,84.90
2017-10-13T10:39:45.325Z,82.50
2017-10-13T10:42:13.448Z,82.50
2017-10-13T10:44:41.597Z,81.40
2017-10-13T10:47:09.719Z,81.10
2017-10-13T10:49:37.896Z,78.50
2017-10-13T10:52:06.781Z,78.50
2017-10-13T10:54:35.700Z,77.70
2017-10-13T10:57:03.840Z,77.60
2017-10-13T10:59:31.974Z,78.30
2017-10-13T11:02:00.125Z,77.20
2017-10-13T11:04:28.573Z,76.90
2017-10-13T11:06:57.466Z,77.90
2017-10-13T11:09:26.353Z,77.00
2017-10-13T11:11:55.262Z,75.90
2017-10-13T11:14:23.426Z,75.90
2017-10-13T11:16:51.583Z,75.90
2017-10-13T11:19:19.783Z,74.50
2017-10-13T11:21:48.787Z,73.30
2017-10-13T11:24:16.903Z,73.00
2017-10-13T11:26:45.040Z,72.40
2017-10-13T11:29:13.185Z,72.40
2017-10-13T11:31:41.326Z,70.80
2017-10-13T11:34:10.225Z,71.00
2017-10-13T11:36:39.124Z,71.30
2017-10-13T11:39:08.035Z,70.20
2017-10-13T11:41:36.178Z,70.10
2017-10-13T11:44:04.323Z,68.70
2017-10-13T11:46:33.372Z,65.90
2017-10-13T11:49:01.488Z,66.60
2017-10-13T11:51:29.664Z,66.30
2017-10-13T11:53:57.823Z,66.60
2017-10-13T11:56:25.939Z,67.80
2017-10-13T11:58:54.833Z,64.50
2017-10-13T12:01:23.777Z,63.20
2017-10-13T12:03:51.908Z,63.20
2017-10-13T12:06:20.036Z,62.50
2017-10-13T12:08:48.178Z,60.20
2017-10-13T12:11:16.311Z,61.70
2017-10-13T12:13:45.241Z,59.00
2017-10-13T12:16:13.375Z,58.90
2017-10-13T12:18:42.272Z,57.80
2017-10-13T12:21:11.151Z,57.30
2017-10-13T12:23:41.037Z,56.80
2017-10-13T12:26:11.181Z,57.20
2017-10-13T12:28:40.094Z,55.10
2017-10-13T12:31:08.266Z,55.10
2017-10-13T12:33:36.384Z,55.60
2017-10-13T12:36:04.542Z,55.70
2017-10-13T12:38:32.675Z,56.30
2017-10-13T12:41:00.811Z,54.80
2017-10-13T12:43:28.941Z,56.20
2017-10-13T12:45:57.079Z,57.60
2017-10-13T12:48:25.995Z,58.00
2017-10-13T12:50:54.141Z,58.00
2017-10-13T12:53:23.071Z,58.00
2017-10-13T12:55:51.227Z,57.90
2017-10-13T12:58:19.380Z,58.00
2017-10-13T13:00:48.278Z,58.80
2017-10-13T13:03:16.421Z,58.70
2017-10-13T13:05:44.579Z,58.10
2017-10-13T13:08:13.002Z,57.40
2017-10-13T13:10:41.152Z,58.80
2017-10-13T13:13:09.260Z,59.00
2017-10-13T13:15:37.421Z,59.90
2017-10-13T13:18:05.540Z,60.40
2017-10-13T13:20:33.694Z,60.30
2017-10-13T13:23:01.834Z,60.90
2017-10-13T13:25:30.012Z,59.90
2017-10-13T13:27:58.898Z,58.20
2017-10-13T13:30:28.016Z,58.20
2017-10-13T13:32:56.142Z,58.00
2017-10-13T13:35:24.268Z,57.30
2017-10-13T13:37:52.415Z,56.00
2017-10-13T13:40:20.558Z,53.80
2017-10-13T13:42:48.705Z,52.70
2017-10-13T13:45:16.831Z,51.60
2017-10-13T13:47:45.320Z,49.90
2017-10-13T13:50:13.433Z,49.10
2017-10-13T13:52:41.560Z,50.30
2017-10-13T13:55:09.708Z,51.40
2017-10-13T13:57:38.608Z,54.70
2017-10-13T14:00:07.520Z,54.80
2017-10-13T14:02:35.660Z,54.80
2017-10-13T14:05:04.602Z,55.00
2017-10-13T14:07:32.748Z,55.00
2017-10-13T14:10:01.950Z,56.20
2017-10-13T14:12:30.077Z,56.10
2017-10-13T14:14:58.278Z,57.10
2017-10-13T14:17:27.202Z,57.80
2017-10-13T14:19:55.396Z,57.80
2017-10-13T14:22:23.550Z,58.40
2017-10-13T14:24:51.690Z,58.10
2017-10-13T14:27:20.615Z,59.30
2017-10-13T14:29:48.738Z,59.30
2017-10-13T14:32:16.860Z,60.00
2017-10-13T14:34:45.028Z,60.20
2017-10-13T14:37:13.172Z,59.90
2017-10-13T14:39:41.308Z,60.30
2017-10-13T14:42:09.449Z,60.20
2017-10-13T14:44:37.620Z,61.40
2017-10-13T14:47:05.746Z,61.50
2017-10-13T14:49:34.644Z,61.70
2017-10-13T14:52:03.576Z,61.30
2017-10-13T14:54:31.733Z,61.30
2017-10-13T14:56:59.888Z,61.40
2017-10-13T14:59:28.228Z,61.30
2017-10-13T15:01:56.474Z,61.10
2017-10-13T15:04:25.366Z,60.70
2017-10-13T15:06:53.515Z,60.70
2017-10-13T15:09:22.437Z,59.90
2017-10-13T15:11:50.565Z,59.80
2017-10-13T15:14:18.715Z,59.40
2017-10-13T15:16:46.947Z,58.60
2017-10-13T15:19:15.831Z,56.40
2017-10-13T15:21:43.963Z,56.30
2017-10-13T15:24:12.111Z,54.90
2017-10-13T15:26:40.257Z,54.60
2017-10-13T15:29:14.265Z,55.30
2017-10-13T15:31:48.126Z,55.40
2017-10-13T15:34:21.955Z,56.60
2017-10-13T15:36:50.867Z,59.30
2017-10-13T15:39:24.811Z,59.30
2017-10-13T15:44:55.409Z,63.90
2017-10-13T15:47:30.048Z,64.10
2017-10-13T15:50:04.004Z,64.10
2017-10-13T15:52:32.143Z,64.90
2017-10-13T15:55:00.292Z,65.60
2017-10-13T15:57:28.470Z,68.90
2017-10-13T15:59:56.589Z,70.80
2017-10-13T16:02:24.738Z,71.50
2017-10-13T16:04:52.940Z,73.50
2017-10-13T16:07:21.070Z,72.60
2017-10-13T16:09:49.230Z,74.30
2017-10-13T16:12:17.400Z,72.60
2017-10-13T16:14:45.543Z,72.60
2017-10-13T16:17:13.712Z,76.10
2017-10-13T16:19:41.829Z,77.30
2017-10-13T16:22:09.969Z,77.50
2017-10-13T16:24:38.126Z,78.40
2017-10-13T16:27:06.267Z,80.10
2017-10-13T16:29:34.396Z,79.70
2017-10-13T16:32:03.336Z,81.00
2017-10-13T16:34:31.460Z,80.90
2017-10-13T16:37:00.356Z,82.30
2017-10-13T16:39:28.516Z,82.30
2017-10-13T16:41:57.424Z,83.40
2017-10-13T16:44:25.655Z,83.30
2017-10-13T16:46:53.877Z,84.60
2017-10-13T16:49:23.943Z,84.80
2017-10-13T16:51:52.572Z,85.70
2017-10-13T16:54:21.481Z,87.50
2017-10-13T16:56:49.646Z,87.50
2017-10-13T16:59:17.788Z,88.40
2017-10-13T17:01:46.712Z,89.50
2017-10-13T17:04:14.844Z,89.40
2017-10-13T17:06:43.008Z,90.10
2017-10-13T17:09:11.169Z,90.50
2017-10-13T17:11:39.311Z,90.70
2017-10-13T17:14:07.441Z,90.90
2017-10-13T17:16:35.575Z,91.20
2017-10-13T17:19:03.728Z,91.30
2017-10-13T17:21:31.855Z,91.50
2017-10-13T17:24:00.038Z,91.70
2017-10-13T17:26:28.934Z,92.30
2017-10-13T17:28:57.125Z,92.30
2017-10-13T17:31:26.029Z,92.60
2017-10-13T17:33:54.571Z,92.60
2017-10-13T17:36:23.705Z,93.30
2017-10-13T17:38:51.834Z,93.30
2017-10-13T17:41:20.766Z,93.80
2017-10-13T17:43:48.891Z,93.80
2017-10-13T17:46:17.097Z,94.10
2017-10-13T17:48:45.258Z,94.20
2017-10-13T17:51:14.253Z,94.80
2017-10-13T17:53:43.181Z,94.90
2017-10-13T17:56:11.327Z,95.00
2017-10-13T17:58:39.525Z,95.10
2017-10-13T18:01:08.012Z,95.40
2017-10-13T18:03:36.150Z,95.50
2017-10-13T18:06:04.403Z,95.60
2017-10-13T18:08:32.634Z,95.80
2017-10-13T18:11:00.803Z,95.90
2017-10-13T18:13:28.982Z,96.00
2017-10-13T18:15:57.302Z,96.30
2017-10-13T18:18:25.461Z,96.40
2017-10-13T18:20:53.672Z,96.60
2017-10-13T18:23:22.725Z,97.00
2017-10-13T18:25:51.723Z,97.10
2017-10-13T18:28:20.035Z,97.10
2017-10-13T18:30:48.175Z,97.40
2017-10-13T18:33:16.373Z,97.60
2017-10-13T18:35:45.402Z,97.90
2017-10-13T18:38:14.390Z,98.10
2017-10-13T18:40:42.770Z,98.10
2017-10-13T18:43:11.767Z,98.40
2017-10-13T18:45:40.245Z,98.40
2017-10-13T18:48:08.416Z,98.40
2017-10-13T18:50:36.553Z,98.50
2017-10-13T18:53:05.507Z,98.70
2017-10-13T18:55:33.667Z,98.60
2017-10-13T18:58:01.825Z,98.70
2017-10-13T19:00:30.048Z,98.80
2017-10-13T19:02:58.246Z,99.00
2017-10-13T19:05:27.196Z,98.80
2017-10-13T19:07:55.373Z,98.80
2017-10-13T19:10:23.528Z,98.90
2017-10-13T19:12:51.683Z,98.90
2017-10-13T19:15:20.015Z,99.00
2017-10-13T19:17:48.212Z,99.30
2017-10-13T19:20:16.416Z,99.50
2017-10-13T19:22:45.418Z,99.70
2017-10-13T19:25:13.586Z,99.50
2017-10-13T19:27:41.714Z,99.60
2017-10-13T19:30:09.896Z,99.70
2017-10-13T19:32:38.794Z,99.90
2017-10-13T19:35:06.970Z,99.90
2017-10-13T19:37:35.118Z,99.90
2017-10-13T19:40:04.038Z,99.90
2017-10-13T19:42:32.210Z,99.90
2017-10-13T19:45:00.356Z,99.90
2017-10-13T19:47:29.296Z,99.90
2017-10-13T19:49:57.432Z,99.90
2017-10-13T19:52:25.634Z,99.90
2017-10-13T19:54:53.791Z,99.90
2017-10-13T19:57:21.940Z,99.90
2017-10-13T19:59:50.874Z,99.90
2017-10-13T20:02:19.035Z,99.90
2017-10-13T20:04:47.462Z,99.90
2017-10-13T20:07:15.605Z,99.90
2017-10-13T20:09:43.752Z,99.90
2017-10-13T20:12:11.905Z,99.90
2017-10-13T20:14:40.082Z,99.90
2017-10-13T20:17:10.004Z,99.90
2017-10-13T20:19:38.164Z,99.90
2017-10-13T20:22:06.384Z,99.90
2017-10-13T20:24:34.515Z,99.90
2017-10-13T20:27:02.674Z,99.90
2017-10-13T20:29:30.814Z,99.90
2017-10-13T20:31:58.946Z,99.90
2017-10-13T20:34:27.125Z,99.90
2017-10-13T20:36:55.263Z,99.90
2017-10-13T20:39:24.178Z,99.90
2017-10-13T20:41:52.420Z,99.90
2017-10-13T20:44:20.571Z,99.90
2017-10-13T20:46:48.855Z,99.90
2017-10-13T20:49:17.005Z,99.90
2017-10-13T20:51:45.192Z,99.90
2017-10-13T20:54:13.629Z,99.90
2017-10-13T20:56:41.780Z,99.90
2017-10-13T20:59:10.689Z,99.90
2017-10-13T21:01:39.534Z,99.90
2017-10-13T21:04:07.943Z,99.90
2017-10-13T21:06:36.843Z,99.90
2017-10-13T21:09:05.094Z,99.90
2017-10-13T21:11:34.372Z,99.90
2017-10-13T21:14:03.689Z,99.90
2017-10-13T21:16:32.312Z,99.90
2017-10-13T21:19:00.690Z,99.90
2017-10-13T21:21:29.190Z,99.90
2017-10-13T21:23:57.660Z,99.90
2017-10-13T21:26:26.220Z,99.90
2017-10-13T21:28:54.398Z,99.90
2017-10-13T21:31:22.734Z,99.90
2017-10-13T21:33:50.883Z,99.90
2017-10-13T21:36:19.046Z,99.90
2017-10-13T21:38:47.220Z,99.90
2017-10-13T21:41:15.407Z,99.90
2017-10-13T21:43:43.612Z,99.90
2017-10-13T21:46:11.949Z,99.90
2017-10-13T21:48:40.065Z,99.90
2017-10-13T21:51:08.982Z,99.90
2017-10-13T21:53:37.119Z,99.90
2017-10-13T21:56:05.288Z,99.90
2017-10-13T21:58:33.439Z,99.90
2017-10-13T22:01:01.575Z,99.90
2017-10-13T22:03:29.722Z,99.90
2017-10-13T22:05:58.620Z,99.90
2017-10-13T22:08:27.537Z,99.90
2017-10-13T22:10:55.760Z,99.90
2017-10-13T22:13:24.227Z,99.90
2017-10-13T22:15:52.434Z,99.90
2017-10-13T22:18:21.369Z,99.90
2017-10-13T22:20:49.482Z,99.90
2017-10-13T22:23:17.633Z,99.90
2017-10-13T22:25:45.768Z,99.90
2017-10-13T22:28:14.053Z,99.90
2017-10-13T22:30:42.205Z,99.90
2017-10-13T22:33:10.334Z,99.90
2017-10-13T22:35:38.479Z,99.90
2017-10-13T22:38:06.609Z,99.90
2017-10-13T22:40:35.543Z,99.90
2017-10-13T22:43:03.844Z,99.90
2017-10-13T22:45:31.983Z,99.90
2017-10-13T22:48:00.115Z,99.90
2017-10-13T22:50:29.017Z,99.90
2017-10-13T22:52:57.923Z,99.90
2017-10-13T22:55:26.044Z,99.90
2017-10-13T22:57:54.348Z,99.90
2017-10-13T23:00:23.238Z,99.90
2017-10-13T23:02:51.491Z,99.90
2017-10-13T23:05:19.623Z,99.90
2017-10-13T23:07:47.744Z,99.90
2017-10-13T23:10:16.639Z,99.90
2017-10-13T23:12:45.535Z,99.90
2017-10-13T23:15:14.441Z,99.90
2017-10-13T23:17:42.567Z,99.90
2017-10-13T23:20:10.694Z,99.90
2017-10-13T23:22:38.846Z,99.90
2017-10-13T23:25:07.763Z,99.90
2017-10-13T23:27:35.906Z,99.90
2017-10-13T23:30:04.812Z,99.90
2017-10-13T23:32:32.959Z,99.90
2017-10-13T23:35:01.874Z,99.90
2017-10-13T23:37:30.030Z,99.90
2017-10-13T23:39:58.913Z,99.90
2017-10-13T23:42:28.393Z,99.90
2017-10-13T23:44:56.510Z,99.90
2017-10-13T23:47:24.704Z,99.90
2017-10-13T23:49:52.838Z,99.90
2017-10-13T23:52:21.737Z,99.90
2017-10-13T23:54:50.629Z,99.90
2017-10-13T23:57:19.538Z,99.90
2017-10-13T23:59:47.671Z,99.90
